Time;durP1;ratioP1;P1;durP2;ratioP2;P2;SDS_P1;SDS_P2;PMS_P1;PMS_P2;Temp;Humidity;BMP_temperature;BMP_pressure;BME280_temperature;BME280_humidity;BME280_pressure;Samples;Min_cycle;Max_cycle;Signal;HPM_P1;HPM_P2
2021/12/31 00:01:00;;;;;;;73.75;37.13;;;;;;;-1.24;87.49;141973.14;1485557;95;21095;-64
2021/12/31 00:03:27;;;;;;;74.72;36.88;;;;;;;-1.24;87.54;141973.14;1485792;95;21133;-63
2021/12/31 00:05:54;;;;;;;70.03;35.17;;;;;;;-1.26;87.60;141969.39;1485671;95;21151;-66
2021/12/31 00:08:20;;;;;;;72.95;37.78;;;;;;;-1.24;87.67;141974.38;1485773;95;21146;-65
2021/12/31 00:10:47;;;;;;;74.10;37.28;;;;;;;-1.23;87.72;141976.84;1485777;97;21216;-62
2021/12/31 00:13:14;;;;;;;71.70;36.98;;;;;;;-1.22;87.76;141979.34;1485603;96;21099;-64
2021/12/31 00:15:41;;;;;;;70.05;36.80;;;;;;;-1.24;87.84;141974.38;1485804;95;21104;-66
2021/12/31 00:18:08;;;;;;;70.20;36.85;;;;;;;-1.22;88.02;141979.34;1484642;95;21120;-61
2021/12/31 00:20:35;;;;;;;69.05;36.05;;;;;;;-1.19;88.02;141986.78;1484374;97;21053;-68
2021/12/31 00:23:04;;;;;;;70.80;37.78;;;;;;;-1.21;88.01;141981.81;1484427;97;21570;-63
2021/12/31 00:25:34;;;;;;;76.10;38.30;;;;;;;-1.23;88.15;141976.84;1484308;95;21096;-65
2021/12/31 00:28:01;;;;;;;69.43;36.63;;;;;;;-1.22;88.23;141979.34;1484942;95;21028;-66
2021/12/31 00:30:29;;;;;;;76.42;37.38;;;;;;;-1.20;88.28;141984.28;1484553;97;21069;-65
2021/12/31 00:32:57;;;;;;;79.22;39.05;;;;;;;-1.15;88.25;141996.69;1484614;95;21040;-66
2021/12/31 00:35:24;;;;;;;74.27;36.35;;;;;;;-1.14;88.25;141999.20;1484498;95;21175;-65
2021/12/31 00:37:51;;;;;;;74.90;37.50;;;;;;;-1.14;88.25;141999.20;1484449;95;21080;-68
2021/12/31 00:40:18;;;;;;;72.62;38.30;;;;;;;-1.15;88.40;141995.47;1484584;95;21144;-66
2021/12/31 00:42:46;;;;;;;75.92;37.67;;;;;;;-1.16;88.42;141993.00;1484748;95;21084;-66
2021/12/31 00:45:17;;;;;;;67.55;36.50;;;;;;;-1.14;88.52;141999.20;1484445;95;21092;-65
2021/12/31 00:47:43;;;;;;;68.77;35.63;;;;;;;-1.13;88.58;142001.67;1484702;95;21113;-67
2021/12/31 00:50:12;;;;;;;72.10;36.17;;;;;;;-1.14;88.63;141999.20;1484464;95;21088;-64
2021/12/31 00:52:39;;;;;;;72.27;38.00;;;;;;;-1.16;88.58;141994.22;1484614;95;21140;-64
2021/12/31 00:55:08;;;;;;;76.75;36.88;;;;;;;-1.17;88.76;141991.77;1484644;97;21533;-68
2021/12/31 00:57:37;;;;;;;71.28;38.40;;;;;;;-1.19;88.80;141986.78;1484624;95;21128;-64
2021/12/31 01:00:07;;;;;;;69.82;37.35;;;;;;;-1.22;88.96;141978.06;1484607;95;21024;-66
2021/12/31 01:02:36;;;;;;;73.70;37.45;;;;;;;-1.20;89.00;141983.05;1484453;95;21064;-70
2021/12/31 01:05:04;;;;;;;74.90;39.18;;;;;;;-1.18;89.09;141989.25;1484491;95;21088;-61
2021/12/31 01:07:31;;;;;;;74.42;37.83;;;;;;;-1.14;89.11;141997.97;1484718;95;21092;-63
2021/12/31 01:10:00;;;;;;;73.92;37.45;;;;;;;-1.12;89.04;142002.91;1484598;95;21119;-65
2021/12/31 01:12:29;;;;;;;82.40;41.00;;;;;;;-1.11;89.14;142006.64;1484594;95;21053;-66
2021/12/31 01:15:01;;;;;;;69.55;38.28;;;;;;;-1.06;89.15;142016.59;1484624;95;21124;-66
2021/12/31 01:17:44;;;;;;;77.82;38.80;;;;;;;-1.05;89.11;142020.28;1484251;95;21092;-61
2021/12/31 01:19:53;;;;;;;71.37;35.58;;;;;;;-1.02;89.06;142026.50;1482274;95;21088;-64
2021/12/31 01:22:26;;;;;;;71.57;37.55;;;;;;;-1.04;89.14;142021.53;1484690;95;21045;-63
2021/12/31 01:24:51;;;;;;;71.20;37.73;;;;;;;-1.03;89.18;142024.03;1484651;95;21546;-61
2021/12/31 01:27:18;;;;;;;70.12;35.65;;;;;;;-1.03;89.22;142024.03;1484538;95;21133;-61
2021/12/31 01:29:45;;;;;;;69.47;36.03;;;;;;;-1.00;89.31;142031.47;1484712;97;21028;-65
2021/12/31 01:32:12;;;;;;;69.47;37.05;;;;;;;-1.01;89.28;142029.02;1484536;95;21084;-64
2021/12/31 01:34:41;;;;;;;69.03;34.18;;;;;;;-1.01;89.31;142029.02;1484573;95;21096;-63
2021/12/31 01:37:09;;;;;;;77.35;37.10;;;;;;;-1.02;89.39;142027.73;1484780;97;21056;-62
2021/12/31 01:39:36;;;;;;;76.02;39.42;;;;;;;-1.01;89.43;142029.02;1484585;95;21088;-61
2021/12/31 01:42:08;;;;;;;76.65;38.10;;;;;;;-1.08;89.52;142012.84;1484673;97;21185;-65
2021/12/31 01:44:40;;;;;;;76.00;37.80;;;;;;;-1.29;90.42;141961.95;1485021;97;21072;-63
2021/12/31 01:47:11;;;;;;;78.65;38.20;;;;;;;-1.29;90.42;141961.95;1484639;96;22159;-64
2021/12/31 01:49:43;;;;;;;71.82;36.63;;;;;;;-1.25;90.44;141971.86;1484731;95;21037;-62
2021/12/31 01:52:11;;;;;;;70.37;36.30;;;;;;;-1.23;90.61;141976.84;1484834;95;21029;-63
2021/12/31 01:54:39;;;;;;;68.10;35.35;;;;;;;-1.21;90.66;141981.81;1484510;95;21189;-61
2021/12/31 01:57:09;;;;;;;73.80;38.98;;;;;;;-1.18;90.74;141989.25;1484739;95;21084;-66
2021/12/31 01:59:38;;;;;;;72.05;38.23;;;;;;;-1.14;90.79;141999.20;1484696;97;21060;-61
2021/12/31 02:02:07;;;;;;;75.55;38.17;;;;;;;-1.13;90.73;142001.67;1484668;95;21080;-64
2021/12/31 02:04:36;;;;;;;72.45;37.70;;;;;;;-1.09;90.79;142010.39;1484631;95;21171;-59
2021/12/31 02:07:04;;;;;;;71.10;35.83;;;;;;;-1.07;90.73;142014.08;1484669;95;21076;-62
2021/12/31 02:09:37;;;;;;;65.22;34.13;;;;;;;-1.06;90.83;142017.83;1484715;95;21110;-64
2021/12/31 02:12:02;;;;;;;71.00;35.83;;;;;;;-1.05;90.86;142020.28;1484400;96;21072;-62
2021/12/31 02:14:31;;;;;;;69.27;35.70;;;;;;;-1.03;90.90;142024.03;1484538;95;21594;-64
2021/12/31 02:16:58;;;;;;;72.82;37.10;;;;;;;-1.04;90.82;142021.53;1484659;95;21158;-62
2021/12/31 02:19:28;;;;;;;67.92;35.58;;;;;;;-1.11;91.00;142006.64;1509411;94;21092;-66
2021/12/31 02:21:56;;;;;;;67.35;35.78;;;;;;;-1.12;91.17;142004.17;1509529;94;21133;-65
2021/12/31 02:24:24;;;;;;;66.92;34.67;;;;;;;-1.12;91.24;142004.17;1509531;94;21088;-63
2021/12/31 02:26:51;;;;;;;69.12;35.40;;;;;;;-1.07;91.28;142014.08;1509581;94;21073;-64
2021/12/31 02:29:23;;;;;;;65.05;34.65;;;;;;;-1.03;91.24;142025.27;1509460;94;21132;-63
2021/12/31 02:31:48;;;;;;;72.08;36.68;;;;;;;-0.98;91.09;142036.45;1509486;94;21582;-63
2021/12/31 02:34:15;;;;;;;63.55;33.05;;;;;;;-0.95;91.15;142045.13;1509369;94;21108;-63
2021/12/31 02:36:42;;;;;;;67.50;35.38;;;;;;;-0.92;91.05;142051.34;1509552;94;21081;-62
2021/12/31 02:39:08;;;;;;;65.12;35.40;;;;;;;-0.89;90.95;142060.06;1509533;94;21590;-63
2021/12/31 02:41:36;;;;;;;65.35;35.43;;;;;;;-0.84;90.88;142071.25;1509501;94;21112;-63
2021/12/31 02:44:03;;;;;;;63.58;33.25;;;;;;;-0.83;90.85;142073.72;1509408;94;21100;-64
2021/12/31 02:46:30;;;;;;;68.72;36.17;;;;;;;-0.80;90.85;142081.16;1509318;94;21100;-63
2021/12/31 02:48:58;;;;;;;65.12;34.40;;;;;;;-0.82;90.72;142076.17;1509390;94;21127;-62
2021/12/31 02:51:27;;;;;;;63.63;34.58;;;;;;;-0.82;90.85;142074.94;1509544;94;21080;-68
2021/12/31 02:53:57;;;;;;;66.60;33.23;;;;;;;-0.80;90.95;142079.92;1509551;94;21145;-63
2021/12/31 02:56:24;;;;;;;65.95;33.42;;;;;;;-0.76;90.91;142089.87;1509634;94;21108;-65
2021/12/31 02:58:52;;;;;;;67.22;34.15;;;;;;;-0.74;90.90;142094.81;1509542;95;21133;-63
2021/12/31 03:01:22;;;;;;;61.65;33.28;;;;;;;-0.69;90.95;142108.50;1509626;95;21121;-66
2021/12/31 03:03:50;;;;;;;67.85;33.98;;;;;;;-0.66;90.90;142115.95;1509523;94;21125;-68
2021/12/31 03:06:17;;;;;;;62.85;34.50;;;;;;;-0.61;90.92;142125.86;1509521;94;21108;-65
2021/12/31 03:08:50;;;;;;;67.82;33.28;;;;;;;-0.61;90.92;142125.86;1509393;94;21160;-64
2021/12/31 03:11:20;;;;;;;66.47;33.60;;;;;;;-0.59;91.03;142130.84;1509685;94;21574;-69
2021/12/31 03:13:53;;;;;;;61.55;31.80;;;;;;;-0.55;91.12;142140.80;1509607;95;21096;-59
2021/12/31 03:16:22;;;;;;;64.00;32.65;;;;;;;-0.53;91.15;142145.77;1509372;94;21108;-63
2021/12/31 03:18:52;;;;;;;65.08;31.97;;;;;;;-0.55;91.29;142140.80;1510389;94;21092;-64
2021/12/31 03:21:22;;;;;;;65.78;32.00;;;;;;;-0.54;91.43;142144.50;1510721;94;21116;-61
2021/12/31 03:23:54;;;;;;;61.30;32.40;;;;;;;-0.54;91.55;142144.50;1510922;94;21076;-62
2021/12/31 03:26:22;;;;;;;65.60;32.45;;;;;;;-0.53;91.72;142145.77;1511117;94;21605;-62
2021/12/31 03:28:51;;;;;;;63.02;33.05;;;;;;;-0.54;91.91;142143.27;1510974;94;21088;-65
2021/12/31 03:31:19;;;;;;;58.43;30.83;;;;;;;-0.54;92.09;142143.27;1511247;94;21129;-60
2021/12/31 03:33:46;;;;;;;61.20;31.50;;;;;;;-0.55;92.34;142140.80;1510983;94;21123;-60
2021/12/31 03:36:13;;;;;;;61.95;32.48;;;;;;;-0.57;92.55;142135.81;1510743;94;21100;-66
2021/12/31 03:38:41;;;;;;;61.65;33.23;;;;;;;-0.56;92.69;142138.28;1511262;94;21118;-65
2021/12/31 03:41:08;;;;;;;64.37;32.50;;;;;;;-0.57;92.89;142137.05;1511086;94;21152;-63
2021/12/31 03:43:34;;;;;;;63.90;32.88;;;;;;;-0.57;93.01;142135.81;1511111;94;21535;-69
2021/12/31 03:46:01;;;;;;;68.45;33.60;;;;;;;-0.54;93.17;142143.27;1510684;95;21081;-67
2021/12/31 03:48:28;;;;;;;59.60;31.15;;;;;;;-0.53;93.31;142147.00;1510834;94;21168;-64
2021/12/31 03:50:55;;;;;;;62.93;31.93;;;;;;;-0.53;93.36;142145.77;1510883;94;21069;-65
2021/12/31 03:53:21;;;;;;;58.23;30.00;;;;;;;-0.51;93.49;142150.70;1511040;94;21109;-60
2021/12/31 03:55:48;;;;;;;128.62;68.70;;;;;;;-0.49;93.64;142156.91;1510827;94;21626;-63
2021/12/31 03:58:15;;;;;;;139.85;75.37;;;;;;;-0.38;97.67;142183.05;1511074;94;21108;-63
2021/12/31 04:00:41;;;;;;;119.25;66.17;;;;;;;0.32;100.00;142352.06;1511018;94;21119;-63
2021/12/31 04:03:11;;;;;;;122.42;65.00;;;;;;;1.24;100.00;142575.94;1511026;94;21152;-65
2021/12/31 04:05:40;;;;;;;113.08;61.68;;;;;;;1.97;100.00;142752.72;1510807;94;21048;-62
2021/12/31 04:08:09;;;;;;;106.22;55.95;;;;;;;2.59;97.24;142905.87;1511123;94;21542;-62
2021/12/31 04:10:36;;;;;;;66.12;36.13;;;;;;;3.02;94.59;143009.31;1511061;94;21594;-63
2021/12/31 04:13:04;;;;;;;61.80;33.02;;;;;;;3.30;89.76;143077.86;1510994;94;21134;-62
2021/12/31 04:15:30;;;;;;;63.68;33.78;;;;;;;2.85;87.11;142966.94;1511021;94;21084;-64
2021/12/31 04:17:57;;;;;;;65.75;34.27;;;;;;;2.28;86.24;142829.91;1510718;94;21158;-64
2021/12/31 04:20:43;;;;;;;73.62;34.80;;;;;;;1.81;86.77;142715.38;1508924;94;21097;-65
2021/12/31 04:23:27;;;;;;;70.62;34.80;;;;;;;1.46;86.94;142630.70;1508862;94;21152;-63
2021/12/31 04:25:42;;;;;;;;;;;;;;;1.15;87.41;142554.81;1508712;94;21100;-63
2021/12/31 04:28:09;;;;;;;63.20;30.85;;;;;;;0.92;88.01;142498.83;1507635;94;20202;-62
2021/12/31 04:30:36;;;;;;;71.77;34.13;;;;;;;0.74;88.56;142454.02;1508885;94;21108;-65
2021/12/31 04:33:02;;;;;;;64.27;33.18;;;;;;;0.60;89.06;142421.69;1509057;95;21574;-63
2021/12/31 04:35:29;;;;;;;66.67;33.15;;;;;;;0.51;89.67;142398.05;1508950;94;21120;-64
2021/12/31 04:37:56;;;;;;;62.58;32.48;;;;;;;0.47;90.07;142388.13;1509033;94;21634;-63
2021/12/31 04:40:23;;;;;;;67.20;34.83;;;;;;;0.42;90.48;142376.94;1509180;95;21073;-63
2021/12/31 04:42:51;;;;;;;65.10;33.83;;;;;;;0.33;90.94;142354.53;1509020;94;21586;-63
2021/12/31 04:45:18;;;;;;;66.35;34.08;;;;;;;0.32;91.30;142352.06;1508999;94;21127;-64
2021/12/31 04:47:46;;;;;;;66.67;32.93;;;;;;;0.29;91.70;142344.61;1508960;93;21113;-62
2021/12/31 04:50:13;;;;;;;62.08;33.35;;;;;;;0.24;92.01;142333.41;1509019;94;21108;-63
2021/12/31 04:52:40;;;;;;;58.08;31.75;;;;;;;0.24;92.47;142332.19;1509062;94;21104;-65
2021/12/31 04:55:09;;;;;;;62.93;34.13;;;;;;;0.24;92.71;142332.19;1508997;94;21149;-63
2021/12/31 04:57:36;;;;;;;66.40;34.50;;;;;;;0.24;93.02;142332.19;1509242;94;21141;-62
2021/12/31 05:00:06;;;;;;;63.15;33.48;;;;;;;0.24;93.40;142332.19;1509289;94;21149;-66
2021/12/31 05:02:34;;;;;;;72.53;35.58;;;;;;;0.20;93.70;142323.45;1509323;95;21100;-63
2021/12/31 05:05:01;;;;;;;64.58;33.60;;;;;;;0.19;93.97;142322.22;1509199;95;21108;-62
2021/12/31 05:07:30;;;;;;;65.03;34.78;;;;;;;0.20;94.22;142324.73;1509034;94;21104;-64
2021/12/31 05:09:57;;;;;;;65.12;32.48;;;;;;;0.24;94.46;142332.19;1509151;94;21108;-64
2021/12/31 05:12:28;;;;;;;77.32;35.10;;;;;;;0.24;94.57;142333.41;1509231;94;21273;-63
2021/12/31 05:14:51;;;;;;;61.83;33.20;;;;;;;0.26;94.83;142337.16;1508912;94;21076;-66
2021/12/31 05:17:18;;;;;;;63.50;35.48;;;;;;;0.30;95.03;142347.08;1509040;94;21131;-65
2021/12/31 05:19:45;;;;;;;70.55;34.43;;;;;;;0.32;95.19;142352.06;1509081;94;21119;-64
2021/12/31 05:22:14;;;;;;;70.32;35.85;;;;;;;0.34;95.34;142358.28;1509008;94;21108;-65
2021/12/31 05:24:41;;;;;;;64.65;33.80;;;;;;;0.35;95.51;142360.75;1509170;94;21573;-64
2021/12/31 05:27:08;;;;;;;71.40;37.00;;;;;;;0.38;95.63;142366.97;1509195;94;21094;-64
2021/12/31 05:29:35;;;;;;;70.72;34.75;;;;;;;0.39;95.81;142369.47;1509278;94;21120;-63
2021/12/31 05:32:04;;;;;;;76.17;35.95;;;;;;;0.40;96.02;142371.95;1509216;94;21104;-63
2021/12/31 05:34:31;;;;;;;69.62;34.73;;;;;;;0.41;96.16;142374.47;1509247;94;21104;-64
2021/12/31 05:36:58;;;;;;;68.90;37.65;;;;;;;0.43;96.36;142379.41;1509135;94;21132;-63
2021/12/31 05:39:29;;;;;;;75.47;34.98;;;;;;;0.43;96.57;142379.41;1509254;94;21096;-64
2021/12/31 05:41:55;;;;;;;66.97;35.85;;;;;;;0.44;96.66;142381.91;1507866;94;21080;-63
2021/12/31 05:44:44;;;;;;;71.80;36.95;;;;;;;0.45;96.96;142384.38;1514421;94;21055;-66
2021/12/31 05:47:11;;;;;;;70.67;35.73;;;;;;;0.47;97.12;142388.13;1553339;91;21107;-66
2021/12/31 05:49:37;;;;;;;74.90;37.48;;;;;;;0.49;97.23;142393.11;1582803;89;21075;-66
2021/12/31 05:52:06;;;;;;;66.82;34.35;;;;;;;0.54;97.41;142405.55;1553648;91;21605;-64
2021/12/31 05:54:34;;;;;;;69.12;35.58;;;;;;;0.54;97.54;142406.78;1582774;89;21633;-63
2021/12/31 05:57:00;;;;;;;73.97;36.63;;;;;;;0.55;97.79;142409.25;1553592;91;21098;-65
2021/12/31 05:59:27;;;;;;;72.22;37.45;;;;;;;0.57;98.03;142414.23;1582821;89;21084;-64
2021/12/31 06:01:53;;;;;;;74.47;37.15;;;;;;;0.58;98.11;142416.70;1582607;89;21114;-64
2021/12/31 06:04:20;;;;;;;90.47;42.80;;;;;;;0.65;98.27;142432.89;1583718;89;21558;-62
2021/12/31 06:06:47;;;;;;;74.60;37.53;;;;;;;0.69;98.31;142441.58;1555980;91;21048;-64
2021/12/31 06:09:14;;;;;;;83.10;42.45;;;;;;;0.72;98.34;142449.08;1562028;90;21643;-62
2021/12/31 06:11:41;;;;;;;77.58;39.05;;;;;;;0.75;98.41;142456.53;1561985;90;21129;-65
2021/12/31 06:14:11;;;;;;;81.08;40.43;;;;;;;0.79;98.53;142467.73;1561728;90;21057;-65
2021/12/31 06:16:44;;;;;;;78.40;36.85;;;;;;;0.82;98.55;142473.95;1561980;90;21558;-65
2021/12/31 06:19:13;;;;;;;76.30;38.60;;;;;;;0.81;98.59;142471.44;1562022;91;21565;-63
